CYGV

Havre St Pierre Airport

Havre St-Pierre, Quebec, Canada
METAR CYGV 170500Z AUTO 28015KT 9SM FEW075 BKN094 BKN230 BKN250 M12/M16 A2955 RMK SLP010
Observed Flight Rules
Dec-17 @ 05:00 UTC (an hour ago) Visual Flight Rules
Wind Visibility Clouds
280° at 15 knots 9 miles
  • Few at 7,500' AGL
  • Broken at 9,400' AGL
  • Broken at 23,000' AGL
  • Broken at 25,000' AGL
Temperatures Readings
Current -12°C / 10°F
Dewpoint -16°C / 3°F
Humidity 72%
Altimeter 29.55" Hg
Pressure 1001 hPa
Elevation 33
METAR CYGV 170500Z AUTO 28015KT 9SM FEW075 BKN094 BKN230 BKN250 M12/M16 A2955 RMK SLP010
Observed Flight Rules
Dec-17 @ 05:00 UTC
(an hour ago)
VFR
Wind Visibility
280° at 15 knots 9 miles
Clouds
  • Few at 7,500' AGL
  • Broken at 9,400' AGL
  • Broken at 23,000' AGL
  • Broken at 25,000' AGL
Temperature Dewpoint
-12°C / 10°F -16°C / 3°F
Humidity Altimeter Pressure
72% 29.55" Hg 1001 hPa